Yardelle, Arkansas
Current Conditions -  °F | °C
As of 7:53 PM on Monday 22 Dec 2014 (Local Time) from KHRO Reporting Station
Overcast Overcast  
Wind Chill: 45°   Ceiling: 3700
Heat Index: 49°   Visibility: 10mi
Dew Point: 45°   Wind: 9mph
Humidity: 86%   Direction: 260°W
Pressure: 29.6"   Gusts: 17mph
Location:  36.0414°N, 92.9867°W
Report Text: KHRO 230153Z AUTO 26008G15KT 10SM FEW017 SCT029 OVC037 09/07 A2960 RMK AO2 SLP023 T00940072
Loading
Personal Weather Stations






























Interactive Weather Map New forecast layout! Learn more

10-Day Weather Forecast

Advertisements
Track Severe Weather on mobile